sensor_id;sensor_type;location;lat;lon;timestamp;pressure;altitude;pressure_sealevel;temperature;humidity
2841;BME280;53423;49.224;12.074;2022-09-06T00:02:18;98031.38;;;16.82;68.20
2841;BME280;53423;49.224;12.074;2022-09-06T00:04:46;98026.88;;;16.76;68.01
2841;BME280;53423;49.224;12.074;2022-09-06T00:07:16;98028.50;;;16.77;67.75
2841;BME280;53423;49.224;12.074;2022-09-06T00:09:44;98023.44;;;16.82;67.39
2841;BME280;53423;49.224;12.074;2022-09-06T00:12:12;98023.78;;;16.72;67.06
2841;BME280;53423;49.224;12.074;2022-09-06T00:14:40;98025.00;;;16.70;67.37
2841;BME280;53423;49.224;12.074;2022-09-06T00:17:08;98027.78;;;16.62;67.25
2841;BME280;53423;49.224;12.074;2022-09-06T00:19:36;98023.47;;;16.54;67.28
2841;BME280;53423;49.224;12.074;2022-09-06T00:22:04;98030.59;;;16.54;67.73
2841;BME280;53423;49.224;12.074;2022-09-06T00:24:34;98033.44;;;16.52;66.72
2841;BME280;53423;49.224;12.074;2022-09-06T00:27:03;98034.31;;;16.38;67.67
2841;BME280;53423;49.224;12.074;2022-09-06T00:29:31;98033.69;;;16.36;67.33
2841;BME280;53423;49.224;12.074;2022-09-06T00:31:59;98034.44;;;16.30;67.30
2841;BME280;53423;49.224;12.074;2022-09-06T00:34:28;98034.06;;;16.33;67.40
2841;BME280;53423;49.224;12.074;2022-09-06T00:36:56;98041.69;;;16.22;68.30
2841;BME280;53423;49.224;12.074;2022-09-06T00:39:24;98046.34;;;16.19;68.13
2841;BME280;53423;49.224;12.074;2022-09-06T00:41:54;98043.53;;;16.21;67.87
2841;BME280;53423;49.224;12.074;2022-09-06T00:44:22;98033.03;;;16.28;68.72
2841;BME280;53423;49.224;12.074;2022-09-06T00:46:51;98037.09;;;16.30;68.47
2841;BME280;53423;49.224;12.074;2022-09-06T00:49:24;98042.00;;;16.33;69.19
2841;BME280;53423;49.224;12.074;2022-09-06T00:51:55;98036.34;;;16.36;69.05
2841;BME280;53423;49.224;12.074;2022-09-06T00:54:24;98037.34;;;16.35;68.76
2841;BME280;53423;49.224;12.074;2022-09-06T00:56:54;98035.31;;;16.37;69.37
2841;BME280;53423;49.224;12.074;2022-09-06T00:59:24;98037.19;;;16.43;68.77
2841;BME280;53423;49.224;12.074;2022-09-06T01:01:52;98044.22;;;16.30;68.12
2841;BME280;53423;49.224;12.074;2022-09-06T01:04:21;98052.91;;;16.24;67.81
2841;BME280;53423;49.224;12.074;2022-09-06T01:07:04;98043.06;;;16.11;68.38
2841;BME280;53423;49.224;12.074;2022-09-06T01:09:46;98049.13;;;16.11;67.61
2841;BME280;53423;49.224;12.074;2022-09-06T01:12:28;98049.47;;;16.02;68.77
2841;BME280;53423;49.224;12.074;2022-09-06T01:15:07;98048.38;;;15.96;68.40
2841;BME280;53423;49.224;12.074;2022-09-06T01:17:45;98046.72;;;15.89;68.67
2841;BME280;53423;49.224;12.074;2022-09-06T01:23:34;98045.31;;;15.93;68.12
2841;BME280;53423;49.224;12.074;2022-09-06T01:26:21;98048.13;;;15.91;68.21
2841;BME280;53423;49.224;12.074;2022-09-06T01:28:57;98051.63;;;15.92;68.76
2841;BME280;53423;49.224;12.074;2022-09-06T01:31:30;98044.50;;;15.92;68.26
2841;BME280;53423;49.224;12.074;2022-09-06T01:34:17;98054.19;;;15.85;68.68
2841;BME280;53423;49.224;12.074;2022-09-06T01:36:50;98051.50;;;15.79;69.17
2841;BME280;53423;49.224;12.074;2022-09-06T01:39:36;98037.38;;;15.72;69.34
2841;BME280;53423;49.224;12.074;2022-09-06T01:42:07;98042.28;;;15.75;69.38
2841;BME280;53423;49.224;12.074;2022-09-06T01:44:40;98048.13;;;15.70;69.16
2841;BME280;53423;49.224;12.074;2022-09-06T01:47:20;98048.94;;;15.71;69.35
2841;BME280;53423;49.224;12.074;2022-09-06T01:49:59;98044.22;;;15.66;69.53
2841;BME280;53423;49.224;12.074;2022-09-06T01:52:35;98047.69;;;15.67;69.32
2841;BME280;53423;49.224;12.074;2022-09-06T01:55:16;98051.31;;;15.66;68.48
2841;BME280;53423;49.224;12.074;2022-09-06T01:57:59;98044.22;;;15.66;69.82
2841;BME280;53423;49.224;12.074;2022-09-06T02:00:39;98039.13;;;15.65;69.57
2841;BME280;53423;49.224;12.074;2022-09-06T02:03:15;98044.41;;;15.65;69.64
2841;BME280;53423;49.224;12.074;2022-09-06T02:05:53;98048.25;;;15.62;69.97
2841;BME280;53423;49.224;12.074;2022-09-06T02:08:26;98050.00;;;15.55;69.84
2841;BME280;53423;49.224;12.074;2022-09-06T02:11:00;98048.81;;;15.58;70.10
2841;BME280;53423;49.224;12.074;2022-09-06T02:13:33;98054.47;;;15.55;70.62
2841;BME280;53423;49.224;12.074;2022-09-06T02:16:07;98054.00;;;15.51;70.01
2841;BME280;53423;49.224;12.074;2022-09-06T02:18:39;98043.38;;;15.45;70.46
2841;BME280;53423;49.224;12.074;2022-09-06T02:21:12;98048.28;;;15.48;69.92
2841;BME280;53423;49.224;12.074;2022-09-06T02:23:42;98041.94;;;15.42;70.04
2841;BME280;53423;49.224;12.074;2022-09-06T02:26:13;98045.19;;;15.44;69.84
2841;BME280;53423;49.224;12.074;2022-09-06T02:28:44;98052.56;;;15.34;69.63
2841;BME280;53423;49.224;12.074;2022-09-06T02:31:17;98049.28;;;15.32;69.88
2841;BME280;53423;49.224;12.074;2022-09-06T02:33:47;98042.94;;;15.27;70.48
2841;BME280;53423;49.224;12.074;2022-09-06T02:36:17;98040.81;;;15.22;69.97
2841;BME280;53423;49.224;12.074;2022-09-06T02:38:45;98041.66;;;15.23;70.08
2841;BME280;53423;49.224;12.074;2022-09-06T02:41:16;98047.19;;;15.28;70.37
2841;BME280;53423;49.224;12.074;2022-09-06T02:43:46;98041.00;;;15.21;70.11
2841;BME280;53423;49.224;12.074;2022-09-06T02:49:34;98046.41;;;15.13;70.81
2841;BME280;53423;49.224;12.074;2022-09-06T02:52:02;98042.31;;;15.10;71.00
2841;BME280;53423;49.224;12.074;2022-09-06T02:54:30;98040.13;;;15.14;70.06
2841;BME280;53423;49.224;12.074;2022-09-06T02:56:59;98040.03;;;15.07;70.55
2841;BME280;53423;49.224;12.074;2022-09-06T02:59:29;98044.75;;;14.97;70.51
2841;BME280;53423;49.224;12.074;2022-09-06T03:01:57;98039.47;;;14.97;71.25
2841;BME280;53423;49.224;12.074;2022-09-06T03:04:25;98038.88;;;14.95;71.01
2841;BME280;53423;49.224;12.074;2022-09-06T03:06:55;98036.38;;;14.93;70.84
2841;BME280;53423;49.224;12.074;2022-09-06T03:09:23;98032.41;;;14.98;70.89
2841;BME280;53423;49.224;12.074;2022-09-06T03:11:52;98022.47;;;15.00;70.18
2841;BME280;53423;49.224;12.074;2022-09-06T03:14:20;98024.47;;;14.98;69.74
2841;BME280;53423;49.224;12.074;2022-09-06T03:16:48;98020.81;;;14.98;69.85
2841;BME280;53423;49.224;12.074;2022-09-06T03:19:16;98022.59;;;14.91;70.14
2841;BME280;53423;49.224;12.074;2022-09-06T03:21:45;98020.81;;;14.98;70.29
2841;BME280;53423;49.224;12.074;2022-09-06T03:24:15;98018.66;;;14.87;70.26
2841;BME280;53423;49.224;12.074;2022-09-06T03:26:43;98022.91;;;14.88;70.20
2841;BME280;53423;49.224;12.074;2022-09-06T03:29:11;98023.94;;;14.87;70.51
2841;BME280;53423;49.224;12.074;2022-09-06T03:31:39;98025.13;;;14.85;71.04
2841;BME280;53423;49.224;12.074;2022-09-06T03:37:51;98014.03;;;14.75;70.50
2841;BME280;53423;49.224;12.074;2022-09-06T03:40:20;98014.66;;;14.77;70.22
2841;BME280;53423;49.224;12.074;2022-09-06T03:42:48;98017.66;;;14.74;70.39
2841;BME280;53423;49.224;12.074;2022-09-06T03:45:16;98023.94;;;14.73;70.74
2841;BME280;53423;49.224;12.074;2022-09-06T03:48:12;98027.75;;;14.70;70.85
2841;BME280;53423;49.224;12.074;2022-09-06T03:50:43;98035.75;;;14.77;70.83
2841;BME280;53423;49.224;12.074;2022-09-06T03:53:12;98033.75;;;14.79;70.19
2841;BME280;53423;49.224;12.074;2022-09-06T03:55:43;98033.94;;;14.77;70.28
2841;BME280;53423;49.224;12.074;2022-09-06T03:58:11;98022.47;;;14.70;69.58
2841;BME280;53423;49.224;12.074;2022-09-06T04:00:39;98033.78;;;14.64;69.57
2841;BME280;53423;49.224;12.074;2022-09-06T04:06:55;98038.69;;;14.53;70.23
2841;BME280;53423;49.224;12.074;2022-09-06T04:13:08;98025.38;;;14.61;70.41
2841;BME280;53423;49.224;12.074;2022-09-06T04:15:36;98029.19;;;14.58;69.97
2841;BME280;53423;49.224;12.074;2022-09-06T04:18:04;98025.28;;;14.54;70.41
2841;BME280;53423;49.224;12.074;2022-09-06T04:20:34;98015.19;;;14.72;69.93
2841;BME280;53423;49.224;12.074;2022-09-06T04:23:02;98023.41;;;14.63;70.38
2841;BME280;53423;49.224;12.074;2022-09-06T04:25:30;98029.09;;;14.52;70.39
2841;BME280;53423;49.224;12.074;2022-09-06T04:27:58;98025.81;;;14.50;70.47
2841;BME280;53423;49.224;12.074;2022-09-06T04:30:27;98008.00;;;14.52;70.60
2841;BME280;53423;49.224;12.074;2022-09-06T04:32:55;98007.81;;;14.53;70.75
2841;BME280;53423;49.224;12.074;2022-09-06T04:35:24;98012.28;;;14.53;70.49
2841;BME280;53423;49.224;12.074;2022-09-06T04:37:52;98014.75;;;14.54;70.77
2841;BME280;53423;49.224;12.074;2022-09-06T04:40:20;98013.72;;;14.55;70.94
2841;BME280;53423;49.224;12.074;2022-09-06T04:42:48;98013.28;;;14.52;70.88
2841;BME280;53423;49.224;12.074;2022-09-06T04:45:15;98025.81;;;14.50;70.30
2841;BME280;53423;49.224;12.074;2022-09-06T04:47:45;98018.38;;;14.53;69.78
2841;BME280;53423;49.224;12.074;2022-09-06T04:50:13;98035.38;;;14.51;70.19
2841;BME280;53423;49.224;12.074;2022-09-06T04:52:41;98028.72;;;14.55;70.18
2841;BME280;53423;49.224;12.074;2022-09-06T04:55:09;98032.56;;;14.67;69.78
2841;BME280;53423;49.224;12.074;2022-09-06T04:57:36;98036.41;;;14.79;69.38
2841;BME280;53423;49.224;12.074;2022-09-06T05:00:12;98030.56;;;14.83;69.55
2841;BME280;53423;49.224;12.074;2022-09-06T05:02:39;98028.19;;;14.88;69.23
2841;BME280;53423;49.224;12.074;2022-09-06T05:05:09;98029.03;;;15.04;68.94
2841;BME280;53423;49.224;12.074;2022-09-06T05:07:37;98030.75;;;15.11;68.64
2841;BME280;53423;49.224;12.074;2022-09-06T05:10:05;98034.56;;;15.23;68.33
2841;BME280;53423;49.224;12.074;2022-09-06T05:12:33;98040.28;;;15.41;68.21
2841;BME280;53423;49.224;12.074;2022-09-06T05:15:04;98029.00;;;16.10;65.87
2841;BME280;53423;49.224;12.074;2022-09-06T05:17:32;98024.06;;;16.29;64.84
2841;BME280;53423;49.224;12.074;2022-09-06T05:20:00;98018.97;;;16.27;64.98
2841;BME280;53423;49.224;12.074;2022-09-06T05:22:30;98034.19;;;16.25;65.34
2841;BME280;53423;49.224;12.074;2022-09-06T05:24:57;98030.28;;;16.42;64.74
2841;BME280;53423;49.224;12.074;2022-09-06T05:27:25;98032.00;;;16.84;63.92
2841;BME280;53423;49.224;12.074;2022-09-06T05:29:53;98036.03;;;17.14;62.61
2841;BME280;53423;49.224;12.074;2022-09-06T05:32:21;98033.97;;;17.50;61.24
2841;BME280;53423;49.224;12.074;2022-09-06T05:34:49;98036.75;;;18.02;60.57
2841;BME280;53423;49.224;12.074;2022-09-06T05:37:16;98035.84;;;17.69;60.07
2841;BME280;53423;49.224;12.074;2022-09-06T05:39:46;98037.94;;;17.87;60.86
2841;BME280;53423;49.224;12.074;2022-09-06T05:42:13;98036.53;;;18.17;60.66
2841;BME280;53423;49.224;12.074;2022-09-06T05:44:45;98035.25;;;19.04;57.10
2841;BME280;53423;49.224;12.074;2022-09-06T05:47:12;98031.47;;;19.82;54.93
2841;BME280;53423;49.224;12.074;2022-09-06T05:49:40;98027.94;;;19.88;54.02
2841;BME280;53423;49.224;12.074;2022-09-06T05:52:08;98041.81;;;19.97;54.37
2841;BME280;53423;49.224;12.074;2022-09-06T05:54:36;98038.72;;;20.31;53.52
2841;BME280;53423;49.224;12.074;2022-09-06T05:57:05;98047.22;;;20.46;53.90
2841;BME280;53423;49.224;12.074;2022-09-06T05:59:33;98035.78;;;22.31;48.43
2841;BME280;53423;49.224;12.074;2022-09-06T06:02:01;98032.69;;;22.57;46.39
2841;BME280;53423;49.224;12.074;2022-09-06T06:04:33;98029.50;;;22.37;47.69
2841;BME280;53423;49.224;12.074;2022-09-06T06:07:01;98039.13;;;22.27;47.65
2841;BME280;53423;49.224;12.074;2022-09-06T06:09:29;98037.09;;;21.99;48.93
2841;BME280;53423;49.224;12.074;2022-09-06T06:11:57;98046.72;;;23.73;44.25
2841;BME280;53423;49.224;12.074;2022-09-06T06:14:26;98038.59;;;23.05;46.81
2841;BME280;53423;49.224;12.074;2022-09-06T06:16:54;98041.47;;;23.15;46.17
2841;BME280;53423;49.224;12.074;2022-09-06T06:19:22;98040.22;;;22.83;47.71
2841;BME280;53423;49.224;12.074;2022-09-06T06:21:52;98046.00;;;21.93;49.98
2841;BME280;53423;49.224;12.074;2022-09-06T06:24:21;98044.34;;;21.44;52.32
2841;BME280;53423;49.224;12.074;2022-09-06T06:26:49;98042.47;;;20.90;54.43
2841;BME280;53423;49.224;12.074;2022-09-06T06:29:17;98037.94;;;20.73;55.83
2841;BME280;53423;49.224;12.074;2022-09-06T06:31:46;98040.75;;;21.21;54.01
2841;BME280;53423;49.224;12.074;2022-09-06T06:34:14;98047.34;;;21.18;54.86
2841;BME280;53423;49.224;12.074;2022-09-06T06:36:46;98040.81;;;21.14;54.46
2841;BME280;53423;49.224;12.074;2022-09-06T06:39:14;98038.88;;;21.39;53.98
2841;BME280;53423;49.224;12.074;2022-09-06T06:41:42;98033.31;;;21.59;53.73
2841;BME280;53423;49.224;12.074;2022-09-06T06:44:10;98040.00;;;21.97;53.12
2841;BME280;53423;49.224;12.074;2022-09-06T06:46:38;98029.47;;;22.14;53.79
2841;BME280;53423;49.224;12.074;2022-09-06T06:49:08;98028.31;;;22.45;52.75
2841;BME280;53423;49.224;12.074;2022-09-06T06:51:36;98033.63;;;22.74;51.91
2841;BME280;53423;49.224;12.074;2022-09-06T06:54:05;98032.22;;;23.06;50.35
2841;BME280;53423;49.224;12.074;2022-09-06T06:56:34;98022.78;;;22.92;51.44
2841;BME280;53423;49.224;12.074;2022-09-06T06:59:04;98028.50;;;22.84;51.62
2841;BME280;53423;49.224;12.074;2022-09-06T07:01:34;98017.69;;;22.79;52.22
2841;BME280;53423;49.224;12.074;2022-09-06T07:04:03;98015.59;;;22.93;52.33
2841;BME280;53423;49.224;12.074;2022-09-06T07:06:45;98025.44;;;23.04;50.89
2841;BME280;53423;49.224;12.074;2022-09-06T07:09:33;98023.91;;;23.31;50.73
2841;BME280;53423;49.224;12.074;2022-09-06T07:12:22;98029.53;;;23.86;49.57
2841;BME280;53423;49.224;12.074;2022-09-06T07:14:50;98028.16;;;23.83;49.91
2841;BME280;53423;49.224;12.074;2022-09-06T07:17:18;98027.63;;;24.26;48.43
2841;BME280;53423;49.224;12.074;2022-09-06T07:19:45;98023.97;;;24.48;48.32
2841;BME280;53423;49.224;12.074;2022-09-06T07:22:35;98018.06;;;25.01;46.80
2841;BME280;53423;49.224;12.074;2022-09-06T07:25:03;98018.13;;;25.06;46.80
2841;BME280;53423;49.224;12.074;2022-09-06T07:27:31;98018.63;;;25.41;46.71
2841;BME280;53423;49.224;12.074;2022-09-06T07:30:16;98016.47;;;25.65;45.27
2841;BME280;53423;49.224;12.074;2022-09-06T07:32:45;98016.69;;;25.85;44.65
2841;BME280;53423;49.224;12.074;2022-09-06T07:35:13;98023.38;;;25.83;45.21
2841;BME280;53423;49.224;12.074;2022-09-06T07:37:42;98025.41;;;25.97;44.31
2841;BME280;53423;49.224;12.074;2022-09-06T07:40:10;98020.81;;;26.19;43.71
2841;BME280;53423;49.224;12.074;2022-09-06T07:42:38;98016.22;;;26.51;44.03
2841;BME280;53423;49.224;12.074;2022-09-06T07:45:07;98020.66;;;27.04;43.09
2841;BME280;53423;49.224;12.074;2022-09-06T07:47:35;98009.69;;;27.21;42.75
2841;BME280;53423;49.224;12.074;2022-09-06T07:50:23;98008.22;;;26.93;43.27
2841;BME280;53423;49.224;12.074;2022-09-06T07:53:12;98006.88;;;27.47;41.82
2841;BME280;53423;49.224;12.074;2022-09-06T07:55:57;98008.94;;;28.07;40.43
2841;BME280;53423;49.224;12.074;2022-09-06T07:58:26;98011.63;;;26.83;41.25
2841;BME280;53423;49.224;12.074;2022-09-06T08:01:23;98009.19;;;25.87;43.46
2841;BME280;53423;49.224;12.074;2022-09-06T08:03:52;98013.13;;;25.53;44.83
2841;BME280;53423;49.224;12.074;2022-09-06T08:06:20;98027.03;;;25.12;45.81
2841;BME280;53423;49.224;12.074;2022-09-06T08:08:50;98010.09;;;25.28;45.88
2841;BME280;53423;49.224;12.074;2022-09-06T08:11:22;98009.81;;;25.46;44.92
2841;BME280;53423;49.224;12.074;2022-09-06T08:13:51;98008.94;;;26.15;43.53
2841;BME280;53423;49.224;12.074;2022-09-06T08:16:21;98001.28;;;26.65;42.16
2841;BME280;53423;49.224;12.074;2022-09-06T08:18:51;98006.31;;;26.93;41.27
2841;BME280;53423;49.224;12.074;2022-09-06T08:21:20;98006.81;;;27.37;40.43
2841;BME280;53423;49.224;12.074;2022-09-06T08:23:53;98004.53;;;27.76;39.97
2841;BME280;53423;49.224;12.074;2022-09-06T08:26:22;97999.97;;;27.10;40.63
2841;BME280;53423;49.224;12.074;2022-09-06T08:28:52;98002.53;;;27.41;40.29
2841;BME280;53423;49.224;12.074;2022-09-06T08:31:21;98000.75;;;27.67;39.78
2841;BME280;53423;49.224;12.074;2022-09-06T08:33:50;97991.66;;;27.98;39.15
2841;BME280;53423;49.224;12.074;2022-09-06T08:36:18;97997.88;;;28.14;39.10
2841;BME280;53423;49.224;12.074;2022-09-06T08:38:46;97986.56;;;28.57;38.54
2841;BME280;53423;49.224;12.074;2022-09-06T08:41:23;97989.72;;;28.99;37.33
2841;BME280;53423;49.224;12.074;2022-09-06T08:43:54;97987.03;;;28.89;38.19
2841;BME280;53423;49.224;12.074;2022-09-06T08:46:49;97988.41;;;28.96;37.37
2841;BME280;53423;49.224;12.074;2022-09-06T08:49:20;97981.34;;;29.00;38.93
2841;BME280;53423;49.224;12.074;2022-09-06T08:51:55;97974.34;;;29.09;38.19
2841;BME280;53423;49.224;12.074;2022-09-06T08:54:31;97976.47;;;29.17;37.25
2841;BME280;53423;49.224;12.074;2022-09-06T08:57:08;97981.25;;;29.36;36.81
2841;BME280;53423;49.224;12.074;2022-09-06T08:59:40;97976.13;;;29.29;37.75
2841;BME280;53423;49.224;12.074;2022-09-06T09:02:11;97976.03;;;29.49;36.63
2841;BME280;53423;49.224;12.074;2022-09-06T09:04:43;97980.16;;;29.42;36.15
2841;BME280;53423;49.224;12.074;2022-09-06T09:07:22;97985.56;;;29.37;37.13
2841;BME280;53423;49.224;12.074;2022-09-06T09:09:53;97985.94;;;28.90;38.69
2841;BME280;53423;49.224;12.074;2022-09-06T09:12:26;97981.88;;;29.07;37.39
2841;BME280;53423;49.224;12.074;2022-09-06T09:15:01;97987.00;;;29.14;37.91
2841;BME280;53423;49.224;12.074;2022-09-06T09:17:34;97971.16;;;28.77;39.20
2841;BME280;53423;49.224;12.074;2022-09-06T09:20:03;97977.31;;;28.98;38.70
2841;BME280;53423;49.224;12.074;2022-09-06T09:22:32;97972.66;;;29.18;38.79
2841;BME280;53423;49.224;12.074;2022-09-06T09:25:00;97960.53;;;29.16;38.54
2841;BME280;53423;49.224;12.074;2022-09-06T09:27:30;97954.22;;;29.84;36.10
2841;BME280;53423;49.224;12.074;2022-09-06T09:30:00;97951.91;;;29.63;36.64
2841;BME280;53423;49.224;12.074;2022-09-06T09:32:48;97940.06;;;29.54;36.24
2841;BME280;53423;49.224;12.074;2022-09-06T09:35:19;97935.59;;;29.34;37.48
2841;BME280;53423;49.224;12.074;2022-09-06T09:37:57;97935.69;;;29.68;37.22
2841;BME280;53423;49.224;12.074;2022-09-06T09:40:36;97938.03;;;29.79;35.73
2841;BME280;53423;49.224;12.074;2022-09-06T09:43:13;97937.44;;;30.21;35.52
2841;BME280;53423;49.224;12.074;2022-09-06T09:45:43;97937.09;;;29.99;35.82
2841;BME280;53423;49.224;12.074;2022-09-06T09:48:20;97931.69;;;30.61;35.63
2841;BME280;53423;49.224;12.074;2022-09-06T09:50:50;97934.06;;;30.68;34.67
2841;BME280;53423;49.224;12.074;2022-09-06T09:53:20;97929.78;;;30.62;34.29
2841;BME280;53423;49.224;12.074;2022-09-06T09:55:48;97923.09;;;30.54;34.63
2841;BME280;53423;49.224;12.074;2022-09-06T09:58:31;97913.72;;;30.70;33.88
2841;BME280;53423;49.224;12.074;2022-09-06T10:01:11;97914.81;;;30.69;35.47
2841;BME280;53423;49.224;12.074;2022-09-06T10:03:39;97910.56;;;30.87;35.08
2841;BME280;53423;49.224;12.074;2022-09-06T10:06:27;97906.78;;;30.88;34.02
2841;BME280;53423;49.224;12.074;2022-09-06T10:09:19;97912.41;;;30.68;34.85
2841;BME280;53423;49.224;12.074;2022-09-06T10:11:52;97903.34;;;30.25;34.09
2841;BME280;53423;49.224;12.074;2022-09-06T10:14:27;97901.84;;;30.42;34.06
2841;BME280;53423;49.224;12.074;2022-09-06T10:16:56;97907.38;;;30.56;34.88
2841;BME280;53423;49.224;12.074;2022-09-06T10:19:36;97908.69;;;30.59;33.78
2841;BME280;53423;49.224;12.074;2022-09-06T10:22:13;97904.50;;;30.71;34.09
2841;BME280;53423;49.224;12.074;2022-09-06T10:25:07;97903.69;;;30.47;35.23
2841;BME280;53423;49.224;12.074;2022-09-06T10:27:42;97904.72;;;30.98;34.58
2841;BME280;53423;49.224;12.074;2022-09-06T10:30:41;97908.81;;;30.72;35.48
2841;BME280;53423;49.224;12.074;2022-09-06T10:33:23;97904.44;;;30.76;34.49
2841;BME280;53423;49.224;12.074;2022-09-06T10:35:55;97898.69;;;31.06;34.29
2841;BME280;53423;49.224;12.074;2022-09-06T10:38:32;97888.63;;;30.36;34.97
2841;BME280;53423;49.224;12.074;2022-09-06T10:41:17;97893.59;;;30.81;34.46
2841;BME280;53423;49.224;12.074;2022-09-06T10:43:56;97896.34;;;31.18;33.47
2841;BME280;53423;49.224;12.074;2022-09-06T10:46:31;97884.75;;;30.94;33.53
2841;BME280;53423;49.224;12.074;2022-09-06T10:49:01;97891.06;;;31.08;33.57
2841;BME280;53423;49.224;12.074;2022-09-06T10:51:33;97881.81;;;30.91;35.36
2841;BME280;53423;49.224;12.074;2022-09-06T10:54:05;97877.72;;;31.54;33.16
2841;BME280;53423;49.224;12.074;2022-09-06T10:56:39;97891.72;;;31.42;33.27
2841;BME280;53423;49.224;12.074;2022-09-06T10:59:14;97886.53;;;31.04;34.79
2841;BME280;53423;49.224;12.074;2022-09-06T11:02:29;97881.03;;;31.51;33.23
2841;BME280;53423;49.224;12.074;2022-09-06T11:05:04;97883.25;;;31.25;34.93
2841;BME280;53423;49.224;12.074;2022-09-06T11:07:59;97880.47;;;31.30;33.34
2841;BME280;53423;49.224;12.074;2022-09-06T11:10:48;97870.75;;;31.29;33.46
2841;BME280;53423;49.224;12.074;2022-09-06T11:13:19;97861.19;;;30.71;35.32
2841;BME280;53423;49.224;12.074;2022-09-06T11:15:51;97869.72;;;30.83;35.78
2841;BME280;53423;49.224;12.074;2022-09-06T11:18:27;97868.31;;;31.09;35.11
2841;BME280;53423;49.224;12.074;2022-09-06T11:21:09;97863.09;;;30.71;34.43
2841;BME280;53423;49.224;12.074;2022-09-06T11:23:47;97855.94;;;30.56;35.29
2841;BME280;53423;49.224;12.074;2022-09-06T11:26:28;97856.78;;;30.75;35.57
2841;BME280;53423;49.224;12.074;2022-09-06T11:28:58;97852.03;;;30.91;33.90
2841;BME280;53423;49.224;12.074;2022-09-06T11:31:29;97851.91;;;31.01;34.76
2841;BME280;53423;49.224;12.074;2022-09-06T11:34:22;97845.91;;;31.59;32.43
2841;BME280;53423;49.224;12.074;2022-09-06T11:36:51;97838.03;;;31.44;33.21
2841;BME280;53423;49.224;12.074;2022-09-06T11:39:27;97838.91;;;31.58;31.18
2841;BME280;53423;49.224;12.074;2022-09-06T11:45:17;97831.47;;;31.64;32.07
2841;BME280;53423;49.224;12.074;2022-09-06T11:47:49;97821.16;;;31.98;31.12
2841;BME280;53423;49.224;12.074;2022-09-06T11:50:22;97820.78;;;31.54;32.07
2841;BME280;53423;49.224;12.074;2022-09-06T11:52:58;97814.03;;;32.02;31.67
2841;BME280;53423;49.224;12.074;2022-09-06T11:55:32;97812.00;;;31.76;31.78
2841;BME280;53423;49.224;12.074;2022-09-06T11:58:04;97814.22;;;31.92;30.96
2841;BME280;53423;49.224;12.074;2022-09-06T12:00:35;97799.66;;;32.02;30.27
2841;BME280;53423;49.224;12.074;2022-09-06T12:03:06;97800.66;;;32.19;29.44
2841;BME280;53423;49.224;12.074;2022-09-06T12:06:16;97795.94;;;32.11;30.15
2841;BME280;53423;49.224;12.074;2022-09-06T12:08:46;97793.34;;;32.20;28.51
2841;BME280;53423;49.224;12.074;2022-09-06T12:14:05;97789.72;;;31.97;30.91
2841;BME280;53423;49.224;12.074;2022-09-06T12:19:56;97784.53;;;32.55;30.16
2841;BME280;53423;49.224;12.074;2022-09-06T12:22:59;97790.19;;;31.35;31.50
2841;BME280;53423;49.224;12.074;2022-09-06T12:25:53;97786.28;;;30.14;32.86
2841;BME280;53423;49.224;12.074;2022-09-06T12:31:33;97779.41;;;30.27;34.39
2841;BME280;53423;49.224;12.074;2022-09-06T12:34:12;97774.56;;;30.48;32.88
2841;BME280;53423;49.224;12.074;2022-09-06T12:36:50;97770.63;;;30.59;33.86
2841;BME280;53423;49.224;12.074;2022-09-06T12:39:21;97771.28;;;30.93;32.92
2841;BME280;53423;49.224;12.074;2022-09-06T12:41:50;97772.06;;;31.49;31.37
2841;BME280;53423;49.224;12.074;2022-09-06T12:44:27;97763.78;;;31.73;31.77
2841;BME280;53423;49.224;12.074;2022-09-06T12:46:59;97767.00;;;31.93;30.50
2841;BME280;53423;49.224;12.074;2022-09-06T12:49:28;97754.53;;;32.19;28.83
2841;BME280;53423;49.224;12.074;2022-09-06T12:52:05;97757.88;;;32.30;29.90
2841;BME280;53423;49.224;12.074;2022-09-06T12:54:40;97758.25;;;31.96;29.21
2841;BME280;53423;49.224;12.074;2022-09-06T12:57:14;97749.59;;;31.94;28.63
2841;BME280;53423;49.224;12.074;2022-09-06T12:59:48;97749.41;;;32.04;28.76
2841;BME280;53423;49.224;12.074;2022-09-06T13:02:19;97745.13;;;32.44;28.54
2841;BME280;53423;49.224;12.074;2022-09-06T13:04:51;97744.19;;;32.35;28.24
2841;BME280;53423;49.224;12.074;2022-09-06T13:07:22;97747.91;;;32.66;26.63
2841;BME280;53423;49.224;12.074;2022-09-06T13:09:55;97743.09;;;32.49;28.98
2841;BME280;53423;49.224;12.074;2022-09-06T13:12:26;97740.06;;;32.64;27.25
2841;BME280;53423;49.224;12.074;2022-09-06T13:14:56;97737.50;;;32.95;27.46
2841;BME280;53423;49.224;12.074;2022-09-06T13:17:27;97734.47;;;32.47;27.56
2841;BME280;53423;49.224;12.074;2022-09-06T13:19:56;97734.56;;;32.56;27.99
2841;BME280;53423;49.224;12.074;2022-09-06T13:22:43;97727.00;;;32.53;27.83
2841;BME280;53423;49.224;12.074;2022-09-06T13:25:15;97716.53;;;32.60;27.94
2841;BME280;53423;49.224;12.074;2022-09-06T13:27:47;97722.03;;;32.68;27.67
2841;BME280;53423;49.224;12.074;2022-09-06T13:30:31;97724.13;;;32.71;27.45
2841;BME280;53423;49.224;12.074;2022-09-06T13:33:00;97724.69;;;32.33;28.01
2841;BME280;53423;49.224;12.074;2022-09-06T13:35:29;97721.09;;;32.24;28.51
2841;BME280;53423;49.224;12.074;2022-09-06T13:38:20;97717.56;;;31.96;29.19
2841;BME280;53423;49.224;12.074;2022-09-06T13:40:49;97719.53;;;31.91;28.81
2841;BME280;53423;49.224;12.074;2022-09-06T13:43:42;97705.50;;;32.02;30.17
2841;BME280;53423;49.224;12.074;2022-09-06T13:46:11;97704.19;;;32.13;29.25
2841;BME280;53423;49.224;12.074;2022-09-06T13:48:39;97696.06;;;32.00;29.99
2841;BME280;53423;49.224;12.074;2022-09-06T13:51:10;97705.22;;;32.17;29.70
2841;BME280;53423;49.224;12.074;2022-09-06T13:53:38;97704.50;;;32.12;29.80
2841;BME280;53423;49.224;12.074;2022-09-06T13:56:07;97697.84;;;31.91;28.88
2841;BME280;53423;49.224;12.074;2022-09-06T13:58:35;97703.16;;;32.23;29.23
2841;BME280;53423;49.224;12.074;2022-09-06T14:01:03;97699.78;;;32.17;28.74